createdAt,value
2023-03-26T00:02:29.864Z,2.80
2023-03-26T00:05:03.034Z,2.60
2023-03-26T00:07:35.136Z,6.00
2023-03-26T00:10:08.498Z,3.00
2023-03-26T00:12:40.533Z,3.70
2023-03-26T00:15:14.098Z,3.30
2023-03-26T00:17:46.565Z,3.10
2023-03-26T00:20:18.907Z,4.10
2023-03-26T00:22:51.651Z,3.70
2023-03-26T00:25:24.953Z,7.20
2023-03-26T00:27:57.472Z,7.80
2023-03-26T00:30:29.521Z,7.60
2023-03-26T00:33:01.849Z,9.90
2023-03-26T00:35:36.807Z,11.30
2023-03-26T00:38:08.990Z,11.90
2023-03-26T00:40:44.308Z,12.60
2023-03-26T00:43:19.939Z,10.50
2023-03-26T00:45:54.564Z,6.80
2023-03-26T00:48:38.297Z,7.80
2023-03-26T00:51:18.689Z,5.80
2023-03-26T00:53:52.058Z,4.40
2023-03-26T00:56:24.404Z,3.30
2023-03-26T00:58:57.872Z,4.00
2023-03-26T01:01:31.846Z,4.30
2023-03-26T01:04:27.885Z,4.40
2023-03-26T01:07:07.645Z,5.10
2023-03-26T01:09:43.019Z,2.90
2023-03-26T01:12:19.819Z,4.30
2023-03-26T01:14:54.535Z,2.90
2023-03-26T01:17:34.320Z,4.40
2023-03-26T01:20:15.218Z,3.30
2023-03-26T01:22:52.304Z,4.70
2023-03-26T01:25:27.932Z,5.10
2023-03-26T01:28:01.137Z,3.80
2023-03-26T01:30:42.517Z,2.80
2023-03-26T01:33:23.252Z,4.10
2023-03-26T01:36:00.165Z,2.60
2023-03-26T01:38:40.516Z,3.90
2023-03-26T01:41:15.615Z,3.00
2023-03-26T01:43:53.005Z,4.40
2023-03-26T01:46:27.631Z,4.70
2023-03-26T01:48:59.772Z,6.40
2023-03-26T01:51:34.149Z,4.60
2023-03-26T01:54:10.008Z,4.30
2023-03-26T01:56:54.922Z,3.80
2023-03-26T01:59:46.455Z,6.30
2023-03-26T02:02:23.013Z,10.60
2023-03-26T02:05:01.672Z,7.50
2023-03-26T02:07:41.073Z,10.80
2023-03-26T02:10:17.474Z,8.40
2023-03-26T02:12:51.980Z,7.00
2023-03-26T02:15:24.699Z,7.00
2023-03-26T02:17:56.732Z,4.60
2023-03-26T02:20:30.419Z,5.40
2023-03-26T02:23:02.489Z,6.00
2023-03-26T02:25:37.064Z,5.10
2023-03-26T02:28:09.247Z,4.10
2023-03-26T02:30:41.522Z,3.70
2023-03-26T02:33:15.495Z,2.80
2023-03-26T02:35:47.632Z,2.70
2023-03-26T02:38:19.816Z,3.10
2023-03-26T02:40:51.893Z,4.80
2023-03-26T02:43:25.240Z,4.20
2023-03-26T02:45:57.999Z,4.00
2023-03-26T02:48:49.972Z,3.60
2023-03-26T02:51:29.851Z,3.50
2023-03-26T02:54:08.727Z,3.10
2023-03-26T02:56:46.593Z,3.50
2023-03-26T02:59:41.767Z,3.00
2023-03-26T03:02:39.077Z,3.10
2023-03-26T03:05:38.215Z,3.00
2023-03-26T03:08:29.957Z,2.60
2023-03-26T03:11:24.698Z,3.30
2023-03-26T03:13:57.413Z,4.00
2023-03-26T03:16:32.639Z,3.30
2023-03-26T03:19:09.800Z,2.90
2023-03-26T03:24:18.727Z,3.30
2023-03-26T03:26:58.127Z,2.40
2023-03-26T03:29:42.549Z,4.10
2023-03-26T03:32:35.523Z,4.00
2023-03-26T03:35:10.214Z,3.50
2023-03-26T03:37:42.833Z,4.20
2023-03-26T03:40:15.699Z,4.50
2023-03-26T03:42:48.501Z,3.50
2023-03-26T03:45:26.593Z,4.10
2023-03-26T03:48:22.038Z,4.10
2023-03-26T03:50:54.187Z,2.40
2023-03-26T03:53:40.750Z,3.30
2023-03-26T03:56:14.904Z,2.00
2023-03-26T03:59:10.329Z,2.80
2023-03-26T04:01:46.839Z,2.70
2023-03-26T04:04:26.991Z,3.30
2023-03-26T04:07:10.365Z,3.10
2023-03-26T04:10:06.840Z,4.50
2023-03-26T04:12:58.262Z,2.40
2023-03-26T04:15:47.439Z,3.70
2023-03-26T04:18:20.527Z,2.60
2023-03-26T04:20:54.736Z,2.40
2023-03-26T04:23:32.083Z,2.60
2023-03-26T04:26:19.944Z,2.70
2023-03-26T04:29:27.960Z,2.10
2023-03-26T04:32:06.583Z,3.90
2023-03-26T04:34:38.894Z,13.20
2023-03-26T04:37:24.643Z,4.60
2023-03-26T04:40:10.545Z,10.00
2023-03-26T04:43:02.472Z,11.50
2023-03-26T04:45:58.056Z,10.60
2023-03-26T04:48:31.959Z,15.00
2023-03-26T04:51:07.294Z,15.30
2023-03-26T04:53:39.673Z,9.30
2023-03-26T04:56:45.951Z,7.30
2023-03-26T04:59:35.104Z,6.70
2023-03-26T05:02:09.757Z,6.40
2023-03-26T05:04:51.546Z,7.10
2023-03-26T05:07:25.003Z,8.80
2023-03-26T05:09:59.444Z,11.00
2023-03-26T05:12:44.125Z,7.50
2023-03-26T05:15:23.251Z,5.10
2023-03-26T05:18:13.824Z,3.40
2023-03-26T05:20:48.041Z,2.90
2023-03-26T05:23:20.224Z,2.90
2023-03-26T05:26:07.781Z,2.90
2023-03-26T05:28:41.044Z,3.30
2023-03-26T05:31:28.082Z,3.00
2023-03-26T05:34:01.580Z,4.70
2023-03-26T05:36:33.858Z,3.30
2023-03-26T05:39:37.354Z,5.60
2023-03-26T05:42:28.059Z,6.20
2023-03-26T05:45:17.179Z,9.80
2023-03-26T05:47:51.504Z,11.80
2023-03-26T05:50:24.295Z,6.00
2023-03-26T05:52:58.017Z,5.60
2023-03-26T05:56:08.702Z,3.10
2023-03-26T05:59:00.319Z,2.60
2023-03-26T06:01:51.463Z,5.30
2023-03-26T06:04:42.762Z,3.40
2023-03-26T06:07:50.767Z,3.50
2023-03-26T06:10:24.897Z,5.50
2023-03-26T06:12:57.276Z,3.40
2023-03-26T06:15:29.553Z,3.90
2023-03-26T06:18:06.851Z,3.00
2023-03-26T06:20:57.754Z,4.80
2023-03-26T06:23:52.729Z,6.70
2023-03-26T06:26:53.885Z,6.50
2023-03-26T06:29:26.427Z,5.00
2023-03-26T06:32:12.372Z,5.80
2023-03-26T06:34:56.200Z,8.40
2023-03-26T06:37:28.342Z,5.80
2023-03-26T06:40:07.099Z,3.60
2023-03-26T06:43:09.187Z,4.30
2023-03-26T06:46:06.732Z,4.00
2023-03-26T06:49:08.266Z,3.60
2023-03-26T06:51:59.667Z,6.00
2023-03-26T06:54:50.659Z,5.10
2023-03-26T06:57:52.819Z,3.50
2023-03-26T07:00:47.769Z,4.40
2023-03-26T07:03:49.448Z,3.70
2023-03-26T07:06:44.734Z,4.70
2023-03-26T07:09:35.421Z,5.00
2023-03-26T07:12:26.261Z,3.60
2023-03-26T07:15:32.127Z,5.80
2023-03-26T07:18:31.070Z,3.90
2023-03-26T07:21:04.950Z,4.10
2023-03-26T07:23:39.338Z,4.00
2023-03-26T07:26:37.403Z,7.60
2023-03-26T07:29:25.777Z,5.60
2023-03-26T07:32:21.710Z,4.30
2023-03-26T07:35:20.510Z,4.00
2023-03-26T07:38:31.437Z,3.80
2023-03-26T07:41:32.612Z,4.50
2023-03-26T07:44:36.146Z,5.40
2023-03-26T07:47:32.764Z,3.50
2023-03-26T07:50:19.691Z,5.60
2023-03-26T07:53:05.711Z,3.10
2023-03-26T07:55:54.987Z,3.70
2023-03-26T07:59:05.093Z,3.30
2023-03-26T08:02:16.936Z,4.10
2023-03-26T08:05:03.174Z,4.10
2023-03-26T08:08:09.665Z,3.80
2023-03-26T08:11:07.346Z,4.80
2023-03-26T08:14:01.555Z,3.50
2023-03-26T08:16:43.247Z,4.20
2023-03-26T08:19:33.696Z,3.90
2023-03-26T08:22:13.131Z,6.00
2023-03-26T08:24:59.477Z,4.70
2023-03-26T08:27:39.290Z,6.30
2023-03-26T08:30:18.905Z,5.70
2023-03-26T08:32:56.872Z,6.00
2023-03-26T08:35:31.070Z,3.80
2023-03-26T08:38:03.216Z,4.60
2023-03-26T08:41:08.198Z,4.70
2023-03-26T08:44:06.655Z,8.90
2023-03-26T08:47:09.219Z,6.20
2023-03-26T08:50:04.715Z,4.30
2023-03-26T08:53:03.872Z,5.60
2023-03-26T08:55:56.641Z,4.20
2023-03-26T08:59:01.155Z,5.00
2023-03-26T09:02:06.395Z,3.00
2023-03-26T09:05:20.358Z,6.60
2023-03-26T09:08:19.040Z,3.50
2023-03-26T09:11:09.195Z,4.60
2023-03-26T09:14:15.596Z,7.10
2023-03-26T09:17:21.325Z,7.30
2023-03-26T09:20:34.729Z,6.00
2023-03-26T09:23:35.139Z,4.70
2023-03-26T09:26:28.074Z,7.00
2023-03-26T09:29:26.925Z,8.10
2023-03-26T09:32:16.235Z,8.10
2023-03-26T09:35:13.227Z,4.90
2023-03-26T09:38:00.831Z,4.30
2023-03-26T09:43:54.539Z,6.50
2023-03-26T09:46:38.836Z,7.20
2023-03-26T09:49:37.090Z,7.00
2023-03-26T09:52:28.025Z,5.90
2023-03-26T09:55:28.334Z,8.40
2023-03-26T09:58:31.558Z,6.00
2023-03-26T10:01:12.672Z,8.10
2023-03-26T10:03:59.806Z,8.00
2023-03-26T10:06:53.241Z,7.00
2023-03-26T10:09:53.462Z,8.20
2023-03-26T10:12:33.491Z,7.80
2023-03-26T10:15:25.086Z,5.80
2023-03-26T10:18:27.539Z,6.00
2023-03-26T10:21:09.607Z,6.40
2023-03-26T10:24:01.683Z,4.20
2023-03-26T10:27:10.192Z,3.00
2023-03-26T10:30:08.668Z,3.80
2023-03-26T10:32:53.443Z,4.20
2023-03-26T10:35:37.625Z,3.70
2023-03-26T10:38:19.734Z,4.10
2023-03-26T10:41:00.830Z,2.60
2023-03-26T10:44:14.398Z,2.60
2023-03-26T10:47:15.348Z,2.60
2023-03-26T10:50:23.715Z,3.70
2023-03-26T10:53:00.570Z,4.60
2023-03-26T10:55:37.902Z,4.20
2023-03-26T10:58:19.648Z,4.40
2023-03-26T11:01:00.704Z,3.10
2023-03-26T11:03:52.141Z,3.00
2023-03-26T11:06:37.435Z,3.00
2023-03-26T11:09:26.440Z,3.60
2023-03-26T11:12:26.507Z,3.60
2023-03-26T11:15:08.889Z,4.20
2023-03-26T11:17:53.309Z,5.40
2023-03-26T11:20:34.124Z,3.40
2023-03-26T11:23:19.995Z,3.80
2023-03-26T11:26:10.075Z,4.00
2023-03-26T11:29:31.546Z,3.80
2023-03-26T11:32:10.536Z,2.80
2023-03-26T11:37:21.787Z,1.70
2023-03-26T11:39:57.823Z,3.20
2023-03-26T11:42:31.493Z,2.30
2023-03-26T11:45:08.174Z,2.60
2023-03-26T11:47:46.689Z,4.50
2023-03-26T11:50:24.951Z,7.20
2023-03-26T11:53:01.475Z,8.20
2023-03-26T11:55:35.901Z,5.40
2023-03-26T11:58:18.974Z,5.70
2023-03-26T12:00:53.088Z,5.60
2023-03-26T12:03:25.964Z,8.80
2023-03-26T12:06:03.007Z,6.40
2023-03-26T12:08:40.911Z,7.70
2023-03-26T12:13:56.420Z,8.30
2023-03-26T12:16:29.404Z,8.00
2023-03-26T12:19:05.613Z,8.40
2023-03-26T12:21:48.611Z,7.70
2023-03-26T12:24:34.979Z,3.50
2023-03-26T12:27:28.467Z,2.90
2023-03-26T12:30:13.989Z,2.90
2023-03-26T12:32:47.233Z,3.50
2023-03-26T12:35:26.895Z,3.00
2023-03-26T12:38:15.673Z,3.30
2023-03-26T12:40:49.009Z,1.80
2023-03-26T12:44:48.825Z,2.70
2023-03-26T12:47:56.096Z,2.40
2023-03-26T12:49:22.405Z,2.70
2023-03-26T12:52:11.423Z,1.60
2023-03-26T12:54:51.266Z,2.00
2023-03-26T12:57:26.644Z,3.70
2023-03-26T13:00:14.499Z,5.00
2023-03-26T13:03:05.899Z,3.90
2023-03-26T13:05:52.472Z,4.60
2023-03-26T13:08:48.226Z,5.60
2023-03-26T13:11:29.524Z,5.30
2023-03-26T13:14:15.704Z,4.90
2023-03-26T13:16:55.717Z,4.40
2023-03-26T13:19:34.524Z,7.90
2023-03-26T13:22:19.345Z,5.30
2023-03-26T13:25:01.118Z,7.30
2023-03-26T13:27:45.708Z,7.10
2023-03-26T13:30:27.374Z,5.20
2023-03-26T13:33:24.871Z,5.00
2023-03-26T13:36:19.264Z,4.20
2023-03-26T13:39:11.118Z,5.80
2023-03-26T13:41:58.623Z,4.40
2023-03-26T13:44:39.924Z,4.30
2023-03-26T13:47:15.509Z,4.10
2023-03-26T13:49:53.029Z,3.90
2023-03-26T13:52:29.303Z,27.40
2023-03-26T13:55:19.382Z,11.30
2023-03-26T13:57:57.872Z,9.40
2023-03-26T14:00:38.498Z,6.70
2023-03-26T14:03:20.284Z,7.70
2023-03-26T14:05:57.231Z,5.30
2023-03-26T14:08:34.529Z,6.20
2023-03-26T14:11:14.105Z,5.40
2023-03-26T14:13:53.732Z,3.60
2023-03-26T14:16:30.805Z,6.80
2023-03-26T14:19:16.370Z,4.70
2023-03-26T14:22:03.782Z,5.20
2023-03-26T14:24:54.800Z,4.40
2023-03-26T14:27:45.238Z,3.70
2023-03-26T14:30:50.707Z,4.90
2023-03-26T14:33:44.062Z,4.20
2023-03-26T14:36:30.918Z,7.40
2023-03-26T14:39:32.689Z,3.90
2023-03-26T14:42:16.425Z,3.60
2023-03-26T14:45:20.843Z,3.50
2023-03-26T14:48:27.916Z,4.10
2023-03-26T14:51:11.777Z,4.80
2023-03-26T14:53:49.683Z,3.80
2023-03-26T14:56:52.052Z,5.70
2023-03-26T15:00:15.395Z,4.60
2023-03-26T15:03:26.304Z,7.00
2023-03-26T15:06:26.560Z,4.60
2023-03-26T15:09:46.447Z,6.80
2023-03-26T15:12:33.044Z,5.40
2023-03-26T15:15:42.161Z,4.30
2023-03-26T15:18:47.781Z,5.40
2023-03-26T15:21:56.773Z,5.60
2023-03-26T15:24:59.364Z,3.80
2023-03-26T15:27:52.179Z,6.00
2023-03-26T15:30:49.329Z,11.30
2023-03-26T15:33:56.964Z,8.00
2023-03-26T15:37:02.598Z,7.30
2023-03-26T15:40:19.204Z,5.70
2023-03-26T15:43:02.037Z,3.50
2023-03-26T15:45:39.250Z,3.10
2023-03-26T15:48:53.666Z,7.40
2023-03-26T15:51:47.117Z,9.60
2023-03-26T15:54:27.963Z,61.10
2023-03-26T15:57:20.757Z,97.90
2023-03-26T16:00:12.753Z,52.50
2023-03-26T16:02:53.869Z,58.10
2023-03-26T16:05:40.729Z,82.90
2023-03-26T16:08:24.622Z,19.30
2023-03-26T16:10:59.259Z,12.40
2023-03-26T16:13:36.277Z,49.70
2023-03-26T16:16:41.785Z,90.10
2023-03-26T16:19:50.359Z,94.00
2023-03-26T16:22:56.199Z,62.00
2023-03-26T16:25:35.503Z,49.20
2023-03-26T16:28:28.469Z,21.60
2023-03-26T16:31:38.405Z,16.60
2023-03-26T16:34:31.488Z,6.70
2023-03-26T16:37:28.644Z,4.80
2023-03-26T16:40:30.398Z,8.80
2023-03-26T16:43:14.559Z,7.60
2023-03-26T16:45:56.468Z,8.10
2023-03-26T16:48:38.228Z,6.80
2023-03-26T16:51:17.322Z,6.70
2023-03-26T16:53:57.950Z,7.30
2023-03-26T16:56:38.862Z,8.00
2023-03-26T16:59:36.289Z,8.00
2023-03-26T17:02:22.362Z,7.40
2023-03-26T17:05:01.436Z,5.90
2023-03-26T17:07:40.068Z,5.00
2023-03-26T17:10:23.782Z,5.10
2023-03-26T17:13:02.916Z,5.70
2023-03-26T17:15:45.076Z,7.30
2023-03-26T17:21:12.254Z,6.10
2023-03-26T17:24:04.188Z,6.60
2023-03-26T17:26:49.891Z,14.80
2023-03-26T17:29:40.952Z,7.50
2023-03-26T17:32:15.263Z,6.90
2023-03-26T17:35:00.946Z,6.20
2023-03-26T17:37:41.132Z,4.60
2023-03-26T17:40:54.855Z,3.00
2023-03-26T17:43:40.471Z,4.50
2023-03-26T17:46:32.046Z,5.30
2023-03-26T17:49:09.747Z,3.00
2023-03-26T17:51:51.634Z,4.90
2023-03-26T17:54:30.419Z,5.40
2023-03-26T17:57:07.795Z,4.10
2023-03-26T17:59:42.469Z,4.50
2023-03-26T18:02:19.937Z,4.70
2023-03-26T18:04:54.995Z,6.30
2023-03-26T18:08:09.577Z,4.40
2023-03-26T18:11:02.069Z,4.10
2023-03-26T18:13:58.750Z,3.50
2023-03-26T18:16:37.918Z,5.50
2023-03-26T18:19:19.580Z,5.70
2023-03-26T18:21:54.976Z,5.80
2023-03-26T18:24:31.590Z,5.40
2023-03-26T18:27:08.773Z,5.50
2023-03-26T18:29:46.474Z,4.10
2023-03-26T18:32:23.781Z,2.90
2023-03-26T18:35:00.907Z,4.70
2023-03-26T18:37:39.420Z,3.10
2023-03-26T18:40:19.428Z,5.30
2023-03-26T18:42:53.651Z,4.30
2023-03-26T18:45:30.177Z,4.80
2023-03-26T18:48:06.440Z,5.60
2023-03-26T18:50:41.655Z,6.80
2023-03-26T18:53:20.858Z,8.20
2023-03-26T18:55:54.022Z,7.10
2023-03-26T18:58:30.385Z,14.00
2023-03-26T19:01:05.050Z,9.80
2023-03-26T19:03:40.566Z,11.90
2023-03-26T19:06:15.994Z,9.70
2023-03-26T19:08:50.097Z,6.70
2023-03-26T19:11:23.533Z,4.90
2023-03-26T19:14:08.002Z,4.40
2023-03-26T19:16:43.847Z,10.00
2023-03-26T19:19:23.171Z,8.10
2023-03-26T19:21:57.895Z,8.50
2023-03-26T19:24:32.047Z,6.40
2023-03-26T19:27:04.985Z,8.40
2023-03-26T19:29:38.540Z,8.10
2023-03-26T19:32:21.853Z,9.80
2023-03-26T19:34:55.132Z,9.20
2023-03-26T19:37:30.102Z,20.10
2023-03-26T19:40:14.439Z,20.40
2023-03-26T19:42:47.767Z,6.80
2023-03-26T19:45:25.844Z,7.90
2023-03-26T19:48:07.729Z,8.70
2023-03-26T19:50:57.766Z,10.70
2023-03-26T19:53:37.384Z,8.40
2023-03-26T19:56:18.865Z,7.00
2023-03-26T19:58:51.504Z,6.10
2023-03-26T20:01:26.945Z,7.60
2023-03-26T20:04:01.736Z,6.30
2023-03-26T20:06:43.216Z,7.20
2023-03-26T20:09:16.493Z,7.60
2023-03-26T20:11:48.668Z,7.00
2023-03-26T20:14:26.278Z,20.70
2023-03-26T20:16:58.905Z,44.80
2023-03-26T20:19:31.061Z,79.00
2023-03-26T20:22:03.140Z,45.60
2023-03-26T20:24:36.617Z,34.30
2023-03-26T20:27:08.806Z,68.50
2023-03-26T20:29:41.382Z,45.80
2023-03-26T20:32:23.610Z,52.90
2023-03-26T20:34:57.814Z,36.20
2023-03-26T20:37:29.928Z,53.80
2023-03-26T20:40:02.037Z,47.40
2023-03-26T20:42:35.942Z,29.70
2023-03-26T20:45:18.095Z,64.00
2023-03-26T20:47:51.444Z,48.90
2023-03-26T20:50:24.582Z,41.60
2023-03-26T20:52:56.814Z,52.70
2023-03-26T20:55:29.426Z,52.40
2023-03-26T20:58:01.657Z,44.70
2023-03-26T21:00:34.044Z,51.70
2023-03-26T21:03:06.227Z,47.30
2023-03-26T21:05:39.381Z,41.30
2023-03-26T21:08:18.293Z,31.90
2023-03-26T21:10:51.410Z,26.50
2023-03-26T21:13:33.633Z,22.70
2023-03-26T21:18:37.634Z,23.60
2023-03-26T21:21:25.174Z,17.40
2023-03-26T21:24:06.469Z,17.30
2023-03-26T21:26:45.009Z,11.70
2023-03-26T21:29:19.190Z,10.40
2023-03-26T21:31:54.008Z,11.70
2023-03-26T21:34:29.346Z,15.60
2023-03-26T21:37:02.731Z,13.90
2023-03-26T21:39:35.660Z,10.10
2023-03-26T21:42:09.145Z,6.80
2023-03-26T21:44:42.654Z,5.40
2023-03-26T21:47:16.088Z,6.50
2023-03-26T21:49:49.400Z,5.60
2023-03-26T21:52:22.747Z,10.50
2023-03-26T21:54:58.177Z,9.70
2023-03-26T21:57:45.871Z,9.40
2023-03-26T22:00:20.799Z,19.60
2023-03-26T22:03:08.408Z,25.30
2023-03-26T22:05:48.658Z,24.40
2023-03-26T22:08:28.614Z,28.10
2023-03-26T22:11:00.750Z,29.80
2023-03-26T22:13:32.817Z,40.20
2023-03-26T22:16:05.298Z,31.30
2023-03-26T22:18:37.977Z,36.40
2023-03-26T22:21:10.582Z,34.50
2023-03-26T22:23:42.619Z,35.20
2023-03-26T22:26:14.586Z,23.70
2023-03-26T22:28:47.006Z,22.10
2023-03-26T22:31:19.352Z,17.60
2023-03-26T22:33:51.913Z,12.70
2023-03-26T22:36:25.409Z,12.40
2023-03-26T22:38:58.310Z,13.70
2023-03-26T22:41:30.702Z,14.80
2023-03-26T22:44:16.822Z,14.50
2023-03-26T22:46:52.521Z,15.10
2023-03-26T22:49:27.569Z,12.60
2023-03-26T22:51:59.692Z,12.30
2023-03-26T22:54:31.795Z,14.30
2023-03-26T22:57:04.177Z,15.40
2023-03-26T22:59:36.284Z,13.50
2023-03-26T23:02:10.030Z,12.10
2023-03-26T23:04:42.938Z,11.40
2023-03-26T23:07:15.717Z,13.10
2023-03-26T23:09:47.781Z,12.00
2023-03-26T23:12:19.731Z,11.80
2023-03-26T23:14:53.143Z,10.70
2023-03-26T23:17:25.973Z,12.80
2023-03-26T23:19:57.974Z,13.30
2023-03-26T23:22:30.037Z,10.80
2023-03-26T23:25:02.028Z,12.50
2023-03-26T23:27:34.202Z,15.80
2023-03-26T23:30:11.012Z,14.00
2023-03-26T23:32:43.342Z,13.70
2023-03-26T23:35:15.704Z,17.00
2023-03-26T23:37:51.107Z,18.40
2023-03-26T23:40:23.129Z,16.90
2023-03-26T23:42:55.291Z,16.80
2023-03-26T23:45:27.817Z,15.30
2023-03-26T23:47:59.960Z,15.90
2023-03-26T23:50:32.010Z,12.80
2023-03-26T23:53:04.125Z,15.50
2023-03-26T23:55:36.734Z,12.80
2023-03-26T23:58:08.924Z,13.90
